createdAt,value
2023-02-05T00:02:39.794Z,103825.03
2023-02-05T00:05:44.770Z,103821.16
2023-02-05T00:08:48.420Z,103810.28
2023-02-05T00:11:52.318Z,103806.72
2023-02-05T00:14:55.962Z,103801.06
2023-02-05T00:17:59.564Z,103797.13
2023-02-05T00:21:05.038Z,103797.13
2023-02-05T00:24:09.028Z,103800.72
2023-02-05T00:27:12.561Z,103798.91
2023-02-05T00:30:16.258Z,103791.19
2023-02-05T00:33:19.825Z,103796.53
2023-02-05T00:36:25.122Z,103788.16
2023-02-05T00:39:28.774Z,103776.88
2023-02-05T00:42:32.361Z,103768.44
2023-02-05T00:45:36.302Z,103746.59
2023-02-05T00:48:41.773Z,103737.31
2023-02-05T00:51:46.733Z,103731.53
2023-02-05T00:54:50.327Z,103724.06
2023-02-05T00:57:54.085Z,103720.59
2023-02-05T01:00:59.456Z,103702.72
2023-02-05T01:04:03.016Z,103689.19
2023-02-05T01:07:08.013Z,103685.72
2023-02-05T01:10:11.957Z,103678.06
2023-02-05T01:13:18.085Z,103675.66
2023-02-05T01:16:21.896Z,103685.09
2023-02-05T01:19:25.514Z,103680.91
2023-02-05T01:22:30.646Z,103684.38
2023-02-05T01:25:34.649Z,103675.81
2023-02-05T01:28:38.426Z,103672.63
2023-02-05T01:31:42.092Z,103673.72
2023-02-05T01:34:46.547Z,103677.91
2023-02-05T01:37:51.633Z,103690.59
2023-02-05T01:40:55.230Z,103689.28
2023-02-05T01:44:11.477Z,103682.78
2023-02-05T01:47:15.104Z,103683.56
2023-02-05T01:50:23.072Z,103677.06
2023-02-05T01:53:33.693Z,103676.34
2023-02-05T01:56:43.959Z,103667.63
2023-02-05T01:59:50.138Z,103661.91
2023-02-05T02:02:54.725Z,103659.81
2023-02-05T02:05:58.355Z,103653.28
2023-02-05T02:09:05.814Z,103657.81
2023-02-05T02:12:11.605Z,103654.25
2023-02-05T02:15:19.456Z,103660.88
2023-02-05T02:18:27.727Z,103669.72
2023-02-05T02:21:58.257Z,103674.53
2023-02-05T02:25:50.163Z,103686.44
2023-02-05T02:29:02.953Z,103685.75
2023-02-05T02:32:20.075Z,103670.25
2023-02-05T02:35:32.257Z,103670.25
2023-02-05T02:38:42.557Z,103666.25
2023-02-05T02:41:54.050Z,103666.72
2023-02-05T02:45:02.817Z,103661.00
2023-02-05T02:48:09.149Z,103650.59
2023-02-05T02:51:16.672Z,103640.91
2023-02-05T02:54:25.614Z,103639.28
2023-02-05T02:57:30.980Z,103627.66
2023-02-05T03:00:39.118Z,103626.22
2023-02-05T03:03:52.389Z,103615.53
2023-02-05T03:07:03.168Z,103615.19
2023-02-05T03:10:15.698Z,103600.06
2023-02-05T03:13:20.014Z,103612.16
2023-02-05T03:16:28.050Z,103609.94
2023-02-05T03:19:32.142Z,103609.94
2023-02-05T03:22:35.751Z,103590.72
2023-02-05T03:25:39.432Z,103598.38
2023-02-05T03:28:43.053Z,103580.25
2023-02-05T03:32:02.823Z,103583.78
2023-02-05T03:35:34.066Z,103584.78
2023-02-05T03:39:01.728Z,103582.34
2023-02-05T03:42:19.229Z,103568.00
2023-02-05T03:45:38.721Z,103555.66
2023-02-05T03:49:02.265Z,103562.34
2023-02-05T03:52:13.616Z,103558.31
2023-02-05T03:55:23.569Z,103556.53
2023-02-05T03:58:33.100Z,103561.84
2023-02-05T04:01:37.489Z,103565.06
2023-02-05T04:04:42.789Z,103564.88
2023-02-05T04:07:46.391Z,103562.72
2023-02-05T04:10:49.939Z,103572.03
2023-02-05T04:13:53.469Z,103575.75
2023-02-05T04:16:57.118Z,103574.94
2023-02-05T04:20:02.142Z,103573.72
2023-02-05T04:23:05.788Z,103584.59
2023-02-05T04:26:09.432Z,103571.06
2023-02-05T04:29:13.161Z,103564.94
2023-02-05T04:32:16.807Z,103548.63
2023-02-05T04:35:21.848Z,103535.56
2023-02-05T04:38:25.496Z,103533.97
2023-02-05T04:41:29.189Z,103537.03
2023-02-05T04:44:32.831Z,103534.59
2023-02-05T04:47:36.951Z,103523.38
2023-02-05T04:50:42.176Z,103528.38
2023-02-05T04:53:45.882Z,103522.59
2023-02-05T04:56:49.533Z,103515.63
2023-02-05T04:59:53.289Z,103513.97
2023-02-05T05:02:57.720Z,103509.09
2023-02-05T05:06:07.811Z,103516.69
2023-02-05T05:09:11.452Z,103505.38
2023-02-05T05:12:15.204Z,103501.47
2023-02-05T05:15:18.898Z,103492.66
2023-02-05T05:18:22.595Z,103511.47
2023-02-05T05:21:27.625Z,103509.69
2023-02-05T05:24:31.420Z,103516.19
2023-02-05T05:27:35.014Z,103511.69
2023-02-05T05:30:40.626Z,103518.13
2023-02-05T05:33:47.181Z,103520.41
2023-02-05T05:36:53.526Z,103521.44
2023-02-05T05:40:14.286Z,103518.06
2023-02-05T05:43:38.037Z,103514.44
2023-02-05T05:46:41.632Z,103504.50
2023-02-05T05:49:45.423Z,103490.69
2023-02-05T05:52:50.410Z,103492.31
2023-02-05T05:55:54.079Z,103499.75
2023-02-05T05:58:57.652Z,103494.69
2023-02-05T06:02:03.123Z,103486.53
2023-02-05T06:05:07.260Z,103487.66
2023-02-05T06:08:12.729Z,103487.25
2023-02-05T06:11:16.621Z,103486.13
2023-02-05T06:14:20.362Z,103485.50
2023-02-05T06:17:24.347Z,103478.63
2023-02-05T06:20:28.232Z,103468.66
2023-02-05T06:23:33.568Z,103456.13
2023-02-05T06:26:40.212Z,103458.91
2023-02-05T06:29:43.890Z,103455.09
2023-02-05T06:32:47.619Z,103444.84
2023-02-05T06:35:51.240Z,103447.22
2023-02-05T06:38:56.266Z,103443.34
2023-02-05T06:42:00.179Z,103434.13
2023-02-05T06:45:04.096Z,103422.84
2023-02-05T06:48:07.934Z,103427.78
2023-02-05T06:51:11.518Z,103424.47
2023-02-05T06:54:16.600Z,103426.00
2023-02-05T06:57:20.247Z,103436.41
2023-02-05T07:00:24.139Z,103432.09
2023-02-05T07:03:27.796Z,103435.75
2023-02-05T07:06:31.373Z,103434.31
2023-02-05T07:09:36.377Z,103429.78
2023-02-05T07:12:39.955Z,103422.78
2023-02-05T07:15:49.844Z,103421.06
2023-02-05T07:18:54.845Z,103423.81
2023-02-05T07:21:58.545Z,103432.75
2023-02-05T07:25:04.753Z,103442.84
2023-02-05T07:28:09.983Z,103438.91
2023-02-05T07:31:17.263Z,103439.06
2023-02-05T07:34:21.158Z,103436.56
2023-02-05T07:37:24.780Z,103444.44
2023-02-05T07:40:29.813Z,103445.44
2023-02-05T07:43:33.543Z,103448.97
2023-02-05T07:46:37.330Z,103451.81
2023-02-05T07:49:41.160Z,103459.63
2023-02-05T07:52:44.923Z,103451.94
2023-02-05T07:55:50.594Z,103450.25
2023-02-05T07:58:54.292Z,103456.13
2023-02-05T08:01:57.894Z,103462.19
2023-02-05T08:05:01.465Z,103472.28
2023-02-05T08:08:06.200Z,103467.00
2023-02-05T08:11:16.174Z,103465.34
2023-02-05T08:14:31.271Z,103467.16
2023-02-05T08:17:34.953Z,103473.31
2023-02-05T08:20:38.640Z,103470.31
2023-02-05T08:23:42.217Z,103467.06
2023-02-05T08:26:47.396Z,103474.41
2023-02-05T08:29:51.011Z,103467.16
2023-02-05T08:32:54.784Z,103463.63
2023-02-05T08:35:59.804Z,103472.19
2023-02-05T08:39:03.570Z,103471.88
2023-02-05T08:42:08.816Z,103473.09
2023-02-05T08:45:12.531Z,103470.66
2023-02-05T08:48:16.532Z,103482.50
2023-02-05T08:51:23.018Z,103484.09
2023-02-05T08:54:27.181Z,103475.75
2023-02-05T08:57:32.424Z,103490.72
2023-02-05T09:00:38.048Z,103491.84
2023-02-05T09:03:42.162Z,103488.94
2023-02-05T09:06:46.570Z,103494.81
2023-02-05T09:09:52.248Z,103494.69
2023-02-05T09:12:57.261Z,103500.28
2023-02-05T09:16:01.274Z,103508.28
2023-02-05T09:19:07.787Z,103522.63
2023-02-05T09:22:11.956Z,103526.66
2023-02-05T09:25:15.751Z,103517.69
2023-02-05T09:28:20.859Z,103511.16
2023-02-05T09:31:24.646Z,103519.84
2023-02-05T09:34:28.555Z,103512.81
2023-02-05T09:37:32.191Z,103515.00
2023-02-05T09:40:44.411Z,103508.28
2023-02-05T09:43:58.668Z,103518.97
2023-02-05T09:47:12.161Z,103518.41
2023-02-05T09:50:26.146Z,103520.63
2023-02-05T09:53:38.217Z,103522.84
2023-02-05T09:56:43.580Z,103533.13
2023-02-05T09:59:49.473Z,103534.38
2023-02-05T10:03:02.844Z,103531.78
2023-02-05T10:06:34.563Z,103546.78
2023-02-05T10:10:01.094Z,103551.94
2023-02-05T10:13:37.057Z,103553.38
2023-02-05T10:17:08.668Z,103553.44
2023-02-05T10:20:31.519Z,103559.34
2023-02-05T10:23:59.577Z,103562.31
2023-02-05T10:27:17.344Z,103555.50
2023-02-05T10:30:30.625Z,103558.78
2023-02-05T10:33:50.092Z,103562.16
2023-02-05T10:36:55.578Z,103566.19
2023-02-05T10:40:00.978Z,103572.34
2023-02-05T10:43:23.061Z,103571.88
2023-02-05T10:46:34.980Z,103568.50
2023-02-05T10:49:51.857Z,103570.72
2023-02-05T10:52:55.752Z,103583.72
2023-02-05T10:56:02.963Z,103584.31
2023-02-05T10:59:07.455Z,103588.03
2023-02-05T11:02:12.298Z,103581.34
2023-02-05T11:05:26.118Z,103585.50
2023-02-05T11:08:36.437Z,103597.44
2023-02-05T11:11:41.432Z,103589.03
2023-02-05T11:14:49.403Z,103594.88
2023-02-05T11:17:57.877Z,103604.69
2023-02-05T11:21:08.720Z,103603.44
2023-02-05T11:24:31.739Z,103603.97
2023-02-05T11:27:38.704Z,103609.06
2023-02-05T11:30:50.831Z,103611.66
2023-02-05T11:34:16.112Z,103614.56
2023-02-05T11:37:21.445Z,103613.72
2023-02-05T11:40:30.938Z,103617.72
2023-02-05T11:43:39.188Z,103618.75
2023-02-05T11:46:47.389Z,103628.22
2023-02-05T11:49:52.799Z,103621.88
2023-02-05T11:53:14.774Z,103616.03
2023-02-05T11:56:25.547Z,103615.84
2023-02-05T11:59:29.629Z,103617.28
2023-02-05T12:02:36.731Z,103617.69
2023-02-05T12:05:47.910Z,103626.44
2023-02-05T12:08:55.049Z,103627.22
2023-02-05T12:12:11.811Z,103617.81
2023-02-05T12:15:25.145Z,103610.88
2023-02-05T12:18:49.368Z,103595.63
2023-02-05T12:22:03.503Z,103586.31
2023-02-05T12:25:20.906Z,103584.69
2023-02-05T12:28:45.485Z,103589.97
2023-02-05T12:32:12.933Z,103589.69
2023-02-05T12:35:35.634Z,103602.63
2023-02-05T12:39:03.795Z,103600.44
2023-02-05T12:42:23.426Z,103603.09
2023-02-05T12:45:49.128Z,103602.31
2023-02-05T12:49:17.808Z,103603.69
2023-02-05T12:52:40.596Z,103612.78
2023-02-05T12:56:11.381Z,103609.00
2023-02-05T12:59:24.526Z,103615.03
2023-02-05T13:02:37.985Z,103613.00
2023-02-05T13:05:47.450Z,103619.13
2023-02-05T13:08:57.172Z,103622.13
2023-02-05T13:12:09.782Z,103616.56
2023-02-05T13:15:22.152Z,103613.84
2023-02-05T13:18:31.358Z,103619.59
2023-02-05T13:21:52.649Z,103640.03
2023-02-05T13:25:24.778Z,103642.97
2023-02-05T13:28:41.499Z,103651.53
2023-02-05T13:31:51.261Z,103661.16
2023-02-05T13:34:56.738Z,103658.19
2023-02-05T13:38:32.323Z,103647.84
2023-02-05T13:42:06.275Z,103652.97
2023-02-05T13:45:53.768Z,103659.88
2023-02-05T13:49:38.292Z,103671.31
2023-02-05T13:53:19.014Z,103671.31
2023-02-05T13:56:49.638Z,103665.25
2023-02-05T13:59:55.261Z,103678.34
2023-02-05T14:03:05.799Z,103685.22
2023-02-05T14:06:30.376Z,103685.28
2023-02-05T14:09:42.567Z,103691.88
2023-02-05T14:12:46.238Z,103701.78
2023-02-05T14:15:50.923Z,103713.38
2023-02-05T14:19:21.876Z,103713.81
2023-02-05T14:22:42.317Z,103717.97
2023-02-05T14:26:11.915Z,103723.22
2023-02-05T14:29:42.170Z,103719.88
2023-02-05T14:33:02.565Z,103722.34
2023-02-05T14:36:44.648Z,103717.31
2023-02-05T14:39:49.716Z,103708.72
2023-02-05T14:43:09.554Z,103722.28
2023-02-05T14:46:29.966Z,103729.78
2023-02-05T14:49:42.950Z,103738.81
2023-02-05T14:52:53.688Z,103726.63
2023-02-05T14:56:00.136Z,103725.47
2023-02-05T14:59:19.097Z,103721.63
2023-02-05T15:03:26.693Z,103722.66
2023-02-05T15:06:38.961Z,103737.59
2023-02-05T15:09:52.337Z,103753.06
2023-02-05T15:13:05.360Z,103751.09
2023-02-05T15:16:23.504Z,103757.59
2023-02-05T15:19:27.327Z,103758.22
2023-02-05T15:22:38.553Z,103761.91
2023-02-05T15:25:48.412Z,103764.25
2023-02-05T15:29:03.502Z,103783.84
2023-02-05T15:32:19.805Z,103803.50
2023-02-05T15:35:27.362Z,103806.69
2023-02-05T15:38:42.254Z,103793.28
2023-02-05T15:41:48.168Z,103791.28
2023-02-05T15:44:53.888Z,103799.50
2023-02-05T15:48:03.222Z,103800.19
2023-02-05T15:51:20.110Z,103798.78
2023-02-05T15:54:25.946Z,103797.00
2023-02-05T15:57:33.157Z,103799.59
2023-02-05T16:00:41.876Z,103807.09
2023-02-05T16:03:45.558Z,103803.06
2023-02-05T16:06:50.219Z,103821.78
2023-02-05T16:09:58.773Z,103830.22
2023-02-05T16:13:05.874Z,103833.13
2023-02-05T16:16:24.243Z,103838.22
2023-02-05T16:19:36.232Z,103834.72
2023-02-05T16:22:45.497Z,103836.38
2023-02-05T16:25:54.947Z,103832.72
2023-02-05T16:29:06.014Z,103836.19
2023-02-05T16:32:27.686Z,103852.63
2023-02-05T16:35:39.137Z,103857.75
2023-02-05T16:38:43.132Z,103861.28
2023-02-05T16:41:57.687Z,103871.72
2023-02-05T16:45:22.969Z,103884.75
2023-02-05T16:48:32.221Z,103878.16
2023-02-05T16:51:52.607Z,103889.03
2023-02-05T16:54:56.673Z,103898.66
2023-02-05T16:58:07.028Z,103901.34
2023-02-05T17:01:11.630Z,103898.66
2023-02-05T17:04:27.690Z,103892.75
2023-02-05T17:07:32.849Z,103893.78
2023-02-05T17:10:51.629Z,103874.84
2023-02-05T17:14:31.397Z,103887.94
2023-02-05T17:17:49.699Z,103895.72
2023-02-05T17:21:24.355Z,103896.69
2023-02-05T17:24:28.209Z,103897.44
2023-02-05T17:27:37.163Z,103906.06
2023-02-05T17:30:43.350Z,103907.38
2023-02-05T17:33:52.278Z,103913.16
2023-02-05T17:36:57.350Z,103912.84
2023-02-05T17:40:00.917Z,103911.81
2023-02-05T17:43:04.810Z,103921.88
2023-02-05T17:46:13.958Z,103929.31
2023-02-05T17:49:18.647Z,103935.97
2023-02-05T17:52:23.965Z,103945.19
2023-02-05T17:55:33.980Z,103942.69
2023-02-05T17:58:37.597Z,103944.78
2023-02-05T18:01:41.329Z,103945.09
2023-02-05T18:04:46.092Z,103943.00
2023-02-05T18:07:54.364Z,103937.59
2023-02-05T18:10:58.174Z,103941.47
2023-02-05T18:14:02.106Z,103946.44
2023-02-05T18:17:06.059Z,103955.56
2023-02-05T18:20:13.897Z,103939.41
2023-02-05T18:23:28.808Z,103952.13
2023-02-05T18:26:33.891Z,103964.97
2023-02-05T18:29:38.081Z,103974.97
2023-02-05T18:32:41.855Z,103961.09
2023-02-05T18:35:45.493Z,103966.53
2023-02-05T18:38:50.697Z,103959.41
2023-02-05T18:41:54.436Z,103979.81
2023-02-05T18:44:57.967Z,103986.06
2023-02-05T18:48:03.854Z,104003.53
2023-02-05T18:51:09.613Z,104009.78
2023-02-05T18:54:14.785Z,104022.22
2023-02-05T18:57:19.337Z,104019.13
2023-02-05T19:00:23.023Z,104030.97
2023-02-05T19:03:27.138Z,104024.84
2023-02-05T19:06:31.233Z,104025.97
2023-02-05T19:09:36.711Z,104034.88
2023-02-05T19:12:40.289Z,104036.69
2023-02-05T19:15:43.981Z,104043.97
2023-02-05T19:18:48.706Z,104044.47
2023-02-05T19:21:53.741Z,104036.94
2023-02-05T19:24:59.022Z,104050.81
2023-02-05T19:28:02.791Z,104052.69
2023-02-05T19:31:09.914Z,104042.50
2023-02-05T19:34:15.009Z,104053.94
2023-02-05T19:37:18.918Z,104050.72
2023-02-05T19:40:23.969Z,104049.09
2023-02-05T19:43:27.683Z,104042.13
2023-02-05T19:46:35.067Z,104044.09
2023-02-05T19:49:38.777Z,104048.47
2023-02-05T19:52:43.798Z,104051.22
2023-02-05T19:55:48.848Z,104063.34
2023-02-05T19:58:55.522Z,104063.19
2023-02-05T20:01:59.553Z,104061.41
2023-02-05T20:05:03.234Z,104068.16
2023-02-05T20:08:07.098Z,104062.31
2023-02-05T20:11:13.739Z,104059.44
2023-02-05T20:14:18.435Z,104065.16
2023-02-05T20:17:22.169Z,104066.53
2023-02-05T20:20:33.486Z,104062.69
2023-02-05T20:23:38.583Z,104062.94
2023-02-05T20:26:44.729Z,104069.09
2023-02-05T20:30:17.376Z,104078.75
2023-02-05T20:33:20.936Z,104091.44
2023-02-05T20:36:24.633Z,104080.66
2023-02-05T20:39:30.451Z,104075.84
2023-02-05T20:42:35.404Z,104081.53
2023-02-05T20:45:38.998Z,104085.44
2023-02-05T20:48:42.806Z,104089.50
2023-02-05T20:51:46.432Z,104087.75
2023-02-05T20:54:50.195Z,104089.31
2023-02-05T20:57:55.228Z,104090.72
2023-02-05T21:01:08.015Z,104091.44
2023-02-05T21:04:12.872Z,104099.41
2023-02-05T21:07:16.625Z,104085.13
2023-02-05T21:10:22.305Z,104097.56
2023-02-05T21:13:28.274Z,104102.72
2023-02-05T21:16:33.839Z,104095.78
2023-02-05T21:19:37.430Z,104096.78
2023-02-05T21:22:41.083Z,104105.53
2023-02-05T21:25:45.467Z,104108.03
2023-02-05T21:28:55.238Z,104098.22
2023-02-05T21:31:58.866Z,104111.88
2023-02-05T21:35:02.615Z,104113.31
2023-02-05T21:38:06.250Z,104125.56
2023-02-05T21:41:12.354Z,104122.59
2023-02-05T21:44:17.780Z,104123.78
2023-02-05T21:47:21.484Z,104121.41
2023-02-05T21:50:25.240Z,104121.41
2023-02-05T21:53:29.451Z,104141.84
2023-02-05T21:56:36.598Z,104141.31
2023-02-05T21:59:41.639Z,104149.00
2023-02-05T22:02:45.378Z,104152.06
2023-02-05T22:05:49.079Z,104148.00
2023-02-05T22:08:53.344Z,104146.22
2023-02-05T22:12:03.537Z,104153.44
2023-02-05T22:15:09.548Z,104152.94
2023-02-05T22:18:13.214Z,104158.47
2023-02-05T22:21:20.339Z,104162.03
2023-02-05T22:24:24.059Z,104158.97
2023-02-05T22:27:28.146Z,104163.22
2023-02-05T22:30:33.249Z,104153.63
2023-02-05T22:33:39.614Z,104157.66
2023-02-05T22:36:43.493Z,104166.38
2023-02-05T22:39:47.292Z,104165.28
2023-02-05T22:42:50.932Z,104164.56
2023-02-05T22:45:55.988Z,104160.81
2023-02-05T22:49:02.337Z,104166.69
2023-02-05T22:52:06.015Z,104173.84
2023-02-05T22:55:09.992Z,104175.34
2023-02-05T22:58:13.613Z,104174.34
2023-02-05T23:01:21.927Z,104167.59
2023-02-05T23:04:25.552Z,104165.59
2023-02-05T23:07:29.302Z,104167.78
2023-02-05T23:10:32.909Z,104171.72
2023-02-05T23:13:37.137Z,104178.84
2023-02-05T23:16:45.478Z,104180.59
2023-02-05T23:19:52.862Z,104175.03
2023-02-05T23:22:57.451Z,104181.06
2023-02-05T23:26:08.336Z,104182.38
2023-02-05T23:29:15.227Z,104167.88
2023-02-05T23:32:20.474Z,104177.56
2023-02-05T23:35:24.240Z,104173.03
2023-02-05T23:38:28.218Z,104175.25
2023-02-05T23:41:40.063Z,104178.56
2023-02-05T23:44:43.958Z,104179.56
2023-02-05T23:47:49.066Z,104179.41
2023-02-05T23:50:53.849Z,104176.28
2023-02-05T23:53:57.476Z,104172.00
2023-02-05T23:57:01.419Z,104178.94
